Time;durP1;ratioP1;P1;durP2;ratioP2;P2;SDS_P1;SDS_P2;PMS_P1;PMS_P2;Temp;Humidity;BMP_temperature;BMP_pressure;BME280_temperature;BME280_humidity;BME280_pressure;Samples;Min_cycle;Max_cycle;Signal;HPM_P1;HPM_P2
2022/09/21 00:00:49;;;;;;;1999.90;999.90;;;8.00;99.90;;;;;;5115611;28;20109;-60
2022/09/21 00:03:15;;;;;;;1999.90;999.90;;;8.10;99.90;;;;;;5116030;28;20035;-60
2022/09/21 00:05:41;;;;;;;1999.90;999.90;;;8.10;99.90;;;;;;5115428;27;20130;-60
2022/09/21 00:08:09;;;;;;;1999.90;999.90;;;8.10;99.90;;;;;;5115142;27;20135;-60
2022/09/21 00:10:36;;;;;;;1999.90;999.90;;;8.10;99.90;;;;;;5136507;27;20477;-60
2022/09/21 00:13:03;;;;;;;1999.90;999.90;;;8.00;99.90;;;;;;5131606;27;20114;-60
2022/09/21 00:15:30;;;;;;;1999.90;999.90;;;8.00;99.90;;;;;;5115201;28;20063;-60
2022/09/21 00:17:57;;;;;;;1999.90;999.90;;;8.00;99.90;;;;;;5115002;28;20405;-60
2022/09/21 00:20:24;;;;;;;1999.90;999.90;;;8.00;99.90;;;;;;5115421;28;20102;-60
2022/09/21 00:22:51;;;;;;;1999.90;999.90;;;7.90;99.90;;;;;;5115085;27;20063;-60
2022/09/21 00:25:18;;;;;;;1999.90;999.90;;;7.90;99.90;;;;;;5114833;28;20040;-60
2022/09/21 00:27:46;;;;;;;1999.90;999.90;;;7.80;99.90;;;;;;5113772;28;20043;-60
2022/09/21 00:30:12;;;;;;;1999.90;999.90;;;7.80;99.90;;;;;;5115291;28;20512;-60
2022/09/21 00:32:38;;;;;;;1999.90;999.90;;;7.70;99.90;;;;;;5134869;27;20070;-60
2022/09/21 00:35:06;;;;;;;1999.90;999.90;;;7.60;99.90;;;;;;5117164;27;20500;-60
2022/09/21 00:37:34;;;;;;;1999.90;999.90;;;7.50;99.90;;;;;;5135333;27;20043;-60
2022/09/21 00:40:00;;;;;;;1999.90;999.90;;;7.40;99.90;;;;;;5129623;27;20044;-60
2022/09/21 00:42:29;;;;;;;1999.90;999.90;;;7.30;99.90;;;;;;5135472;27;20058;-60
2022/09/21 00:44:55;;;;;;;1999.90;999.90;;;7.30;99.90;;;;;;5116689;27;20058;-60
2022/09/21 00:47:29;;;;;;;1999.90;999.90;;;7.30;99.90;;;;;;5116439;27;20521;-60
2022/09/21 00:49:58;;;;;;;1999.90;999.90;;;7.30;99.90;;;;;;5118494;27;20039;-60
2022/09/21 00:52:30;;;;;;;1999.90;999.90;;;7.30;99.90;;;;;;5124478;27;20085;-60
2022/09/21 00:55:04;;;;;;;1999.90;999.90;;;7.20;99.90;;;;;;5134748;27;20062;-60
2022/09/21 00:57:31;;;;;;;1999.90;999.90;;;7.10;99.90;;;;;;5128939;27;20039;-60
2022/09/21 01:00:01;;;;;;;1999.90;999.90;;;7.10;99.90;;;;;;5114689;28;20132;-60
2022/09/21 01:02:27;;;;;;;1999.90;999.90;;;7.20;99.90;;;;;;5112595;28;20164;-60
2022/09/21 01:04:54;;;;;;;1999.90;999.90;;;7.20;99.90;;;;;;5114793;28;20119;-60
2022/09/21 01:07:25;;;;;;;1999.90;999.90;;;7.10;99.90;;;;;;5119985;27;20080;-60
2022/09/21 01:09:54;;;;;;;1999.90;999.90;;;7.10;99.90;;;;;;5116454;27;20057;-60
2022/09/21 01:12:46;;;;;;;1999.90;999.90;;;7.10;99.90;;;;;;5116666;27;20065;-60
2022/09/21 01:15:33;;;;;;;1999.90;999.90;;;7.20;99.90;;;;;;5127438;27;20153;-60
2022/09/21 01:18:25;;;;;;;1999.90;999.90;;;7.30;99.90;;;;;;5114449;28;20051;-60
2022/09/21 01:21:02;;;;;;;1999.90;999.90;;;7.30;99.90;;;;;;5114372;28;20040;-60
2022/09/21 01:23:37;;;;;;;1999.90;999.90;;;7.40;99.90;;;;;;5125201;27;20043;-60
2022/09/21 01:26:24;;;;;;;1999.90;999.90;;;7.40;99.90;;;;;;5114543;28;20043;-60
2022/09/21 01:29:17;;;;;;;1999.90;999.90;;;7.40;99.90;;;;;;5113310;28;20454;-60
2022/09/21 01:31:48;;;;;;;;;;;7.30;99.90;;;;;;5115411;27;20097;-60
2022/09/21 01:34:24;;;;;;;1999.90;999.90;;;7.20;99.90;;;;;;5114505;27;20002;-60
2022/09/21 01:36:55;;;;;;;1999.90;999.90;;;7.20;99.90;;;;;;5113158;27;20109;-60
2022/09/21 01:39:22;;;;;;;1999.90;999.90;;;7.10;99.90;;;;;;5113975;28;20051;-60
2022/09/21 01:41:51;;;;;;;1999.90;999.90;;;7.10;99.90;;;;;;5105355;28;20082;-60
2022/09/21 01:44:22;;;;;;;1999.90;999.90;;;7.00;99.90;;;;;;5094861;28;20039;-60
2022/09/21 01:46:50;;;;;;;1999.90;999.90;;;7.00;99.90;;;;;;5114004;28;20052;-60
2022/09/21 01:49:23;;;;;;;1999.90;999.90;;;7.10;99.90;;;;;;5113450;28;20040;-60
2022/09/21 01:51:54;;;;;;;1999.90;999.90;;;7.00;99.90;;;;;;5118152;27;20039;-60
2022/09/21 01:54:27;;;;;;;1999.90;999.90;;;7.00;99.90;;;;;;5134121;27;20093;-60
2022/09/21 01:56:54;;;;;;;;;;;7.00;99.90;;;;;;5134161;27;20130;-60
2022/09/21 01:59:27;;;;;;;1999.90;999.90;;;7.00;99.90;;;;;;5111694;28;19964;-60
2022/09/21 02:01:59;;;;;;;1999.90;999.90;;;7.00;99.90;;;;;;5113406;28;20508;-60
2022/09/21 02:04:26;;;;;;;1999.90;999.90;;;7.00;99.90;;;;;;5111436;28;20104;-60
2022/09/21 02:06:52;;;;;;;1999.90;999.90;;;7.00;99.90;;;;;;5121934;27;20429;-60
2022/09/21 02:09:18;;;;;;;1999.90;999.90;;;7.10;99.90;;;;;;5123721;27;20099;-60
2022/09/21 02:11:44;;;;;;;1999.90;999.90;;;7.10;99.90;;;;;;5121797;27;20412;-60
2022/09/21 02:14:21;;;;;;;1999.90;999.90;;;7.10;99.90;;;;;;5121273;27;20173;-60
2022/09/21 02:16:56;;;;;;;1999.90;999.90;;;7.10;99.90;;;;;;5123881;27;20055;-60
2022/09/21 02:19:42;;;;;;;1999.90;999.90;;;7.10;99.90;;;;;;5112029;28;20051;-60
2022/09/21 02:22:14;;;;;;;1999.90;999.90;;;7.10;99.90;;;;;;5120987;28;20046;-60
2022/09/21 02:24:42;;;;;;;1999.90;999.90;;;7.00;99.90;;;;;;5102636;28;20058;-60
2022/09/21 02:27:23;;;;;;;1999.90;999.90;;;7.00;99.90;;;;;;5113017;28;20051;-60
2022/09/21 02:30:01;;;;;;;1999.90;999.90;;;6.90;99.90;;;;;;5113033;28;20043;-61
2022/09/21 02:32:37;;;;;;;1999.90;999.90;;;6.80;99.90;;;;;;5113042;28;20546;-60
2022/09/21 02:35:16;;;;;;;1999.90;999.90;;;6.70;99.90;;;;;;5113342;28;20043;-60
2022/09/21 02:38:09;;;;;;;1999.90;999.90;;;6.70;99.90;;;;;;5113189;28;20043;-60
2022/09/21 02:40:44;;;;;;;1999.90;999.90;;;6.80;99.90;;;;;;5119625;28;20091;-60
2022/09/21 02:43:21;;;;;;;1999.90;999.90;;;6.80;99.90;;;;;;5113250;28;20405;-60
2022/09/21 02:46:04;;;;;;;1999.90;999.90;;;6.70;99.90;;;;;;5112636;28;20127;-60
2022/09/21 02:48:36;;;;;;;1999.90;999.90;;;6.60;99.90;;;;;;5111530;28;20122;-60
2022/09/21 02:51:07;;;;;;;1999.90;999.90;;;6.70;99.90;;;;;;5111478;28;20119;-60
2022/09/21 02:53:35;;;;;;;1999.90;999.90;;;6.70;99.90;;;;;;5114005;28;20411;-60
2022/09/21 02:56:06;;;;;;;1999.90;999.90;;;6.70;99.90;;;;;;5133493;28;20511;-60
2022/09/21 02:58:36;;;;;;;1999.90;999.90;;;6.80;99.90;;;;;;5115064;28;20051;-60
2022/09/21 03:01:06;;;;;;;1999.90;999.90;;;6.80;99.90;;;;;;5131880;28;20072;-60
2022/09/21 03:03:32;;;;;;;1999.90;999.90;;;6.90;99.90;;;;;;5133372;28;20042;-60
2022/09/21 03:05:59;;;;;;;1999.90;999.90;;;6.90;99.90;;;;;;5114863;28;20404;-60
2022/09/21 03:08:25;;;;;;;1999.90;999.90;;;6.90;99.90;;;;;;5132536;28;20523;-60
2022/09/21 03:10:50;;;;;;;1999.90;999.90;;;6.80;99.90;;;;;;5121759;28;20114;-60
2022/09/21 03:13:17;;;;;;;1999.90;999.90;;;6.70;99.90;;;;;;5112798;28;20101;-60
2022/09/21 03:15:44;;;;;;;1999.90;999.90;;;6.50;99.90;;;;;;5110514;28;20113;-60
2022/09/21 03:18:10;;;;;;;1999.90;999.90;;;6.40;99.90;;;;;;5112844;28;20043;-60
2022/09/21 03:20:39;;;;;;;1999.90;999.90;;;6.40;99.90;;;;;;5131808;28;20075;-60
2022/09/21 03:23:05;;;;;;;1999.90;999.90;;;6.40;99.90;;;;;;5132854;28;20043;-60
2022/09/21 03:25:32;;;;;;;1999.90;999.90;;;6.40;99.90;;;;;;5133581;27;20118;-60
2022/09/21 03:27:58;;;;;;;1999.90;999.90;;;6.40;99.90;;;;;;5129438;27;20048;-60
2022/09/21 03:30:25;;;;;;;1999.90;999.90;;;6.40;99.90;;;;;;5116131;28;20145;-60
2022/09/21 03:32:51;;;;;;;1999.90;999.90;;;6.30;99.90;;;;;;5106600;28;20062;-60
2022/09/21 03:35:18;;;;;;;1999.90;999.90;;;6.40;99.90;;;;;;5124375;27;20071;-60
2022/09/21 03:37:46;;;;;;;1999.90;999.90;;;6.30;99.90;;;;;;5126088;27;20047;-60
2022/09/21 03:40:12;;;;;;;1999.90;999.90;;;6.40;99.90;;;;;;5134096;27;20039;-60
2022/09/21 03:42:40;;;;;;;1999.90;999.90;;;6.30;99.90;;;;;;5117017;27;20047;-60
2022/09/21 03:45:07;;;;;;;1999.90;999.90;;;6.30;99.90;;;;;;5134395;27;20047;-60
2022/09/21 03:47:33;;;;;;;1999.90;999.90;;;6.30;99.90;;;;;;5116297;28;20379;-60
2022/09/21 03:49:59;;;;;;;1999.90;999.90;;;6.40;99.90;;;;;;5115316;28;20393;-60
2022/09/21 03:52:25;;;;;;;1999.90;999.90;;;6.40;99.90;;;;;;5126063;27;20047;-60
2022/09/21 03:54:51;;;;;;;1999.90;999.90;;;6.30;99.90;;;;;;5127056;27;20047;-60
2022/09/21 03:57:17;;;;;;;1999.90;999.90;;;6.30;99.90;;;;;;5114795;28;20051;-60
2022/09/21 03:59:43;;;;;;;1999.90;999.90;;;6.30;99.90;;;;;;5114909;28;20047;-60
2022/09/21 04:02:08;;;;;;;1999.90;999.90;;;6.30;99.90;;;;;;5115942;28;20436;-60
2022/09/21 04:04:34;;;;;;;1999.90;999.90;;;6.30;99.90;;;;;;5132855;27;20046;-60
2022/09/21 04:07:00;;;;;;;1999.90;999.90;;;6.30;99.90;;;;;;5136370;27;20082;-60
2022/09/21 04:09:26;;;;;;;1999.90;999.90;;;6.30;99.90;;;;;;5117868;27;20481;-60
2022/09/21 04:11:52;;;;;;;1999.90;999.90;;;6.30;99.90;;;;;;5112879;28;20053;-60
2022/09/21 04:14:19;;;;;;;1999.90;999.90;;;6.30;99.90;;;;;;5115910;28;20046;-60
2022/09/21 04:16:45;;;;;;;1999.90;999.90;;;6.30;99.90;;;;;;5115470;28;20055;-60
2022/09/21 04:19:11;;;;;;;1999.90;999.90;;;6.30;99.90;;;;;;5114505;28;20046;-60
2022/09/21 04:21:36;;;;;;;1999.90;999.90;;;6.30;99.90;;;;;;5126558;27;20043;-60
2022/09/21 04:24:03;;;;;;;1999.90;999.90;;;6.40;99.90;;;;;;5117127;27;20047;-60
2022/09/21 04:26:32;;;;;;;1999.90;999.90;;;6.40;99.90;;;;;;5116830;27;20047;-60
2022/09/21 04:28:58;;;;;;;1999.90;999.90;;;6.40;99.90;;;;;;5135799;27;20385;-60
2022/09/21 04:31:25;;;;;;;1999.90;999.90;;;6.40;99.90;;;;;;5115721;27;20043;-60
2022/09/21 04:33:53;;;;;;;1999.90;999.90;;;6.50;99.90;;;;;;5087421;28;20114;-60
2022/09/21 04:36:21;;;;;;;1999.90;999.90;;;6.50;99.90;;;;;;5114867;28;20477;-60
2022/09/21 04:38:47;;;;;;;1999.90;999.90;;;6.40;99.90;;;;;;5102972;27;20039;-60
2022/09/21 04:41:14;;;;;;;1999.90;999.90;;;6.30;99.90;;;;;;5135075;27;20056;-60
2022/09/21 04:43:42;;;;;;;1999.90;999.90;;;6.30;99.90;;;;;;5135812;27;20043;-60
2022/09/21 04:46:11;;;;;;;1999.90;999.90;;;6.10;99.90;;;;;;5135071;27;20377;-60
2022/09/21 04:48:38;;;;;;;1999.90;999.90;;;6.10;99.90;;;;;;5119631;27;20123;-60
2022/09/21 04:51:06;;;;;;;1999.90;999.90;;;6.10;99.90;;;;;;5113980;28;20054;-60
2022/09/21 04:53:33;;;;;;;1999.90;999.90;;;6.20;99.90;;;;;;5133711;27;20054;-60
2022/09/21 04:56:00;;;;;;;1999.90;999.90;;;6.20;99.90;;;;;;5132438;27;20369;-60
2022/09/21 04:58:26;;;;;;;1999.90;999.90;;;6.20;99.90;;;;;;5113455;28;20225;-60
2022/09/21 05:00:54;;;;;;;1999.90;999.90;;;6.30;99.90;;;;;;5112567;28;20084;-60
2022/09/21 05:03:21;;;;;;;1999.90;999.90;;;6.30;99.90;;;;;;5134486;27;20055;-60
2022/09/21 05:05:48;;;;;;;1999.90;999.90;;;6.40;99.90;;;;;;5133511;27;20046;-60
2022/09/21 05:08:15;;;;;;;1999.90;999.90;;;6.40;99.90;;;;;;5116090;27;20066;-60
2022/09/21 05:10:41;;;;;;;1999.90;999.90;;;6.40;99.90;;;;;;5134752;27;20484;-60
2022/09/21 05:13:07;;;;;;;1999.90;999.90;;;6.50;99.90;;;;;;5134986;27;20370;-60
2022/09/21 05:15:33;;;;;;;1999.90;999.90;;;6.50;99.90;;;;;;5115342;27;20068;-60
2022/09/21 05:17:58;;;;;;;1999.90;999.90;;;6.40;99.90;;;;;;5134829;27;20043;-60
2022/09/21 05:20:24;;;;;;;1999.90;999.90;;;6.40;99.90;;;;;;5134304;27;20051;-60
2022/09/21 05:22:50;;;;;;;1999.90;999.90;;;6.40;99.90;;;;;;5128803;27;20051;-60
2022/09/21 05:25:16;;;;;;;1999.90;999.90;;;6.40;99.90;;;;;;5114227;28;20051;-60
2022/09/21 05:27:42;;;;;;;1999.90;999.90;;;6.40;99.90;;;;;;5113754;28;20310;-60
2022/09/21 05:30:09;;;;;;;1999.90;999.90;;;6.40;99.90;;;;;;5115391;27;20035;-60
2022/09/21 05:32:53;;;;;;;1999.90;999.90;;;6.40;99.90;;;;;;5106300;27;20191;-60
2022/09/21 05:35:58;;;;;;;1999.90;999.90;;;6.30;99.90;;;;;;5132567;27;20564;-60
2022/09/21 05:38:24;;;;;;;1999.90;999.90;;;6.30;99.90;;;;;;5134635;27;20050;-60
2022/09/21 05:40:50;;;;;;;1999.90;999.90;;;6.40;99.90;;;;;;5133456;27;20121;-60
2022/09/21 05:43:16;;;;;;;1999.90;999.90;;;6.40;99.90;;;;;;5133889;27;20455;-60
2022/09/21 05:45:46;;;;;;;1999.90;999.90;;;6.50;99.90;;;;;;5134240;27;20095;-60
2022/09/21 05:48:25;;;;;;;1999.90;999.90;;;6.50;99.90;;;;;;5128669;27;20047;-60
2022/09/21 05:51:09;;;;;;;1999.90;999.90;;;6.60;99.90;;;;;;5115811;27;20100;-60
2022/09/21 05:53:40;;;;;;;1999.90;999.90;;;6.70;99.90;;;;;;5133610;27;20630;-60
2022/09/21 05:56:18;;;;;;;1999.90;999.90;;;6.90;99.90;;;;;;5114897;27;20070;-60
2022/09/21 05:58:51;;;;;;;1999.90;999.90;;;7.00;99.90;;;;;;5124430;27;20036;-60
2022/09/21 06:01:27;;;;;;;1999.90;999.90;;;7.20;99.90;;;;;;5127970;27;20046;-60
2022/09/21 06:03:54;;;;;;;1999.90;999.90;;;7.30;99.90;;;;;;5114590;27;20496;-60
2022/09/21 06:06:20;;;;;;;1999.90;999.90;;;7.40;99.90;;;;;;5134030;27;20051;-60
2022/09/21 06:08:46;;;;;;;1999.90;999.90;;;7.50;99.90;;;;;;5111930;28;20127;-60
2022/09/21 06:11:12;;;;;;;1999.90;999.90;;;7.60;99.90;;;;;;5111083;28;20054;-60
2022/09/21 06:13:39;;;;;;;1999.90;999.90;;;7.60;99.90;;;;;;5113324;28;20439;-60
2022/09/21 06:16:06;;;;;;;1999.90;999.90;;;7.70;99.90;;;;;;5113361;27;20477;-60
2022/09/21 06:18:37;;;;;;;1999.90;999.90;;;7.70;99.90;;;;;;5112550;28;20058;-60
2022/09/21 06:21:03;;;;;;;1999.90;999.90;;;7.70;99.90;;;;;;5112954;28;20473;-60
2022/09/21 06:23:29;;;;;;;1999.90;999.90;;;7.70;99.90;;;;;;5113569;28;20046;-60
2022/09/21 06:25:55;;;;;;;1999.90;999.90;;;7.60;99.90;;;;;;5112082;28;20048;-60
2022/09/21 06:28:21;;;;;;;1999.90;999.90;;;7.60;99.90;;;;;;5113455;28;20043;-60
2022/09/21 06:30:51;;;;;;;1999.90;999.90;;;7.50;99.90;;;;;;5112740;28;20043;-60
2022/09/21 06:33:20;;;;;;;1999.90;999.90;;;7.60;99.90;;;;;;5113802;28;20058;-60
2022/09/21 06:35:53;;;;;;;1999.90;999.90;;;7.70;99.90;;;;;;5113066;28;20512;-60
2022/09/21 06:38:19;;;;;;;1999.90;999.90;;;7.80;99.90;;;;;;5112587;28;20040;-60
2022/09/21 06:40:45;;;;;;;1999.90;999.90;;;7.90;99.90;;;;;;5111556;28;20048;-60
2022/09/21 06:43:11;;;;;;;1999.90;999.90;;;8.00;99.90;;;;;;5113382;28;20044;-60
2022/09/21 06:45:36;;;;;;;1999.90;999.90;;;8.10;99.90;;;;;;5112426;28;20055;-60
2022/09/21 06:48:02;;;;;;;1999.90;999.90;;;8.20;99.90;;;;;;5112904;28;20066;-60
2022/09/21 06:50:28;;;;;;;1999.90;999.90;;;8.30;99.90;;;;;;5097113;28;20062;-61
2022/09/21 06:52:54;;;;;;;1999.90;999.90;;;8.30;99.90;;;;;;5128072;28;20067;-61
2022/09/21 06:55:20;;;;;;;1999.90;999.90;;;8.40;99.90;;;;;;5114688;28;20058;-61
2022/09/21 06:57:46;;;;;;;1999.90;999.90;;;8.50;99.90;;;;;;5115052;28;20525;-61
2022/09/21 07:00:13;;;;;;;1999.90;999.90;;;8.50;99.90;;;;;;5127997;27;20047;-61
2022/09/21 07:02:44;;;;;;;1999.90;999.90;;;8.60;99.90;;;;;;5116754;28;20036;-61
2022/09/21 07:05:10;;;;;;;1999.90;999.90;;;8.70;99.90;;;;;;5115697;28;20057;-61
2022/09/21 07:07:36;;;;;;;1999.90;999.90;;;8.90;99.90;;;;;;5116647;28;20055;-61
2022/09/21 07:10:02;;;;;;;1999.90;999.90;;;9.00;99.90;;;;;;5122540;27;20093;-61
2022/09/21 07:12:28;;;;;;;1999.90;999.90;;;9.10;99.90;;;;;;5133562;27;20035;-61
2022/09/21 07:14:54;;;;;;;1999.90;999.90;;;9.20;99.90;;;;;;5136546;27;20043;-61
2022/09/21 07:17:20;;;;;;;1999.90;999.90;;;9.30;99.90;;;;;;5132669;27;20051;-61
2022/09/21 07:19:46;;;;;;;1999.90;999.90;;;9.40;99.90;;;;;;5101567;28;20095;-61
2022/09/21 07:22:12;;;;;;;1999.90;999.90;;;9.60;99.90;;;;;;5115457;28;20122;-61
2022/09/21 07:24:37;;;;;;;1999.90;999.90;;;9.70;99.90;;;;;;5116232;28;20115;-61
2022/09/21 07:27:03;;;;;;;1999.90;999.90;;;10.00;99.90;;;;;;5118678;27;20054;-61
2022/09/21 07:29:29;;;;;;;1999.90;999.90;;;10.10;99.90;;;;;;5126950;27;20039;-61
2022/09/21 07:31:55;;;;;;;1999.90;999.90;;;10.30;99.90;;;;;;5122321;27;20043;-60
2022/09/21 07:34:21;;;;;;;1999.90;999.90;;;10.40;99.90;;;;;;5128076;27;20043;-60
2022/09/21 07:36:47;;;;;;;1999.90;999.90;;;10.50;99.90;;;;;;5121261;27;20052;-61
2022/09/21 07:39:12;;;;;;;1999.90;999.90;;;10.70;99.90;;;;;;5116177;28;20054;-61
2022/09/21 07:41:38;;;;;;;1999.90;999.90;;;10.80;99.90;;;;;;5115499;28;20048;-60
2022/09/21 07:44:04;;;;;;;1999.90;999.90;;;11.00;99.90;;;;;;5116152;27;20043;-60
2022/09/21 07:46:30;;;;;;;1999.90;999.90;;;11.10;99.90;;;;;;5114501;28;20405;-60
2022/09/21 07:48:56;;;;;;;1999.90;999.90;;;11.30;99.90;;;;;;5115967;27;20044;-61
2022/09/21 07:51:22;;;;;;;1999.90;999.90;;;11.50;99.90;;;;;;5125840;27;20055;-60
2022/09/21 07:54:00;;;;;;;1999.90;999.90;;;11.60;99.90;;;;;;5125634;27;20050;-61
2022/09/21 07:56:26;;;;;;;1999.90;999.90;;;11.70;99.90;;;;;;5115115;28;20069;-61
2022/09/21 07:59:04;;;;;;;1999.90;999.90;;;11.80;99.90;;;;;;5114973;27;20481;-60
2022/09/21 08:01:33;;;;;;;1999.90;999.90;;;11.90;99.90;;;;;;5135258;27;20476;-61
2022/09/21 08:03:59;;;;;;;1999.90;999.90;;;12.00;99.90;;;;;;5131660;27;20040;-60
2022/09/21 08:06:27;;;;;;;1999.90;999.90;;;12.20;99.90;;;;;;5105695;28;20051;-60
2022/09/21 08:08:53;;;;;;;1999.90;999.90;;;12.30;99.90;;;;;;5123113;27;20051;-60
2022/09/21 08:11:21;;;;;;;1999.90;999.90;;;12.50;99.90;;;;;;5119624;27;20044;-61
2022/09/21 08:13:47;;;;;;;1999.90;999.90;;;12.60;99.90;;;;;;5134671;27;20442;-61
2022/09/21 08:16:14;;;;;;;1999.90;999.90;;;12.80;99.90;;;;;;5134672;27;20139;-60
2022/09/21 08:18:40;;;;;;;1999.90;999.90;;;12.90;99.90;;;;;;5136301;27;20043;-60
2022/09/21 08:21:08;;;;;;;1999.90;999.90;;;13.10;99.90;;;;;;5119150;27;20083;-61
2022/09/21 08:23:34;;;;;;;1999.90;999.90;;;13.20;99.90;;;;;;5117254;27;20075;-61
2022/09/21 08:26:02;;;;;;;1999.90;999.90;;;13.30;99.90;;;;;;5125349;27;20046;-61
2022/09/21 08:28:30;;;;;;;1999.90;999.90;;;13.40;99.90;;;;;;5122765;27;20548;-61
2022/09/21 08:31:03;;;;;;;1999.90;999.90;;;13.60;99.90;;;;;;5123572;27;20460;-61
2022/09/21 08:33:29;;;;;;;1999.90;999.90;;;13.70;99.90;;;;;;5123148;27;20106;-61
2022/09/21 08:35:58;;;;;;;1999.90;999.90;;;13.80;99.90;;;;;;5135505;27;20043;-61
2022/09/21 08:38:25;;;;;;;1999.90;999.90;;;13.90;99.90;;;;;;5104014;27;20044;-61
2022/09/21 08:40:52;;;;;;;1999.90;999.90;;;14.00;99.90;;;;;;5107254;27;20079;-61
2022/09/21 08:43:34;;;;;;;1999.90;999.90;;;14.10;99.90;;;;;;5104572;28;20089;-61
2022/09/21 08:46:02;;;;;;;1999.90;999.90;;;14.30;99.90;;;;;;5128166;27;20054;-61
2022/09/21 08:48:31;;;;;;;1999.90;999.90;;;14.40;99.90;;;;;;5128383;27;20377;-61
2022/09/21 08:51:08;;;;;;;1999.90;999.90;;;14.50;99.90;;;;;;5126956;27;20078;-60
2022/09/21 08:53:38;;;;;;;1999.90;999.90;;;14.50;99.90;;;;;;5115829;27;20074;-61
2022/09/21 08:56:04;;;;;;;1999.90;999.90;;;14.60;99.90;;;;;;5131005;27;20055;-61
2022/09/21 08:58:31;;;;;;;1999.90;999.90;;;14.70;99.90;;;;;;5124902;27;20047;-61
2022/09/21 09:01:12;;;;;;;1999.90;999.90;;;14.70;99.90;;;;;;5123699;27;20481;-61
2022/09/21 09:03:46;;;;;;;1999.90;999.90;;;14.70;99.90;;;;;;5114463;27;20544;-61
2022/09/21 09:06:25;;;;;;;1999.90;999.90;;;14.80;99.90;;;;;;5112063;28;20406;-61
2022/09/21 09:09:07;;;;;;;1999.90;999.90;;;14.90;99.90;;;;;;5114416;27;20054;-61
2022/09/21 09:11:55;;;;;;;1999.90;999.90;;;15.00;99.90;;;;;;5114345;28;20123;-61
2022/09/21 09:15:00;;;;;;;1999.90;999.90;;;15.00;99.90;;;;;;5108761;28;20101;-61
2022/09/21 09:17:49;;;;;;;1999.90;999.90;;;15.10;99.90;;;;;;5117019;27;20047;-61
2022/09/21 09:20:23;;;;;;;1999.90;999.90;;;15.20;99.90;;;;;;5120480;27;20068;-61
2022/09/21 09:23:08;;;;;;;1999.90;999.90;;;15.20;99.90;;;;;;5103635;27;20120;-61
2022/09/21 09:25:41;;;;;;;1999.90;999.90;;;15.30;99.90;;;;;;5113597;28;20047;-61
2022/09/21 09:28:24;;;;;;;1999.90;999.90;;;15.40;99.90;;;;;;5112112;28;20044;-61
2022/09/21 09:30:59;;;;;;;1999.90;999.90;;;15.40;99.90;;;;;;5097677;27;20467;-61
2022/09/21 09:33:30;;;;;;;1999.90;999.90;;;15.50;99.90;;;;;;5123196;27;20047;-61
2022/09/21 09:36:04;;;;;;;1999.90;999.90;;;15.60;99.90;;;;;;5100903;28;20416;-61
2022/09/21 09:38:35;;;;;;;1999.90;999.90;;;15.60;99.90;;;;;;5113632;28;20071;-61
2022/09/21 09:41:07;;;;;;;1999.90;999.90;;;15.80;99.90;;;;;;5128804;27;20043;-61
2022/09/21 09:43:37;;;;;;;1999.90;999.90;;;15.90;99.90;;;;;;5134658;27;20051;-61
2022/09/21 09:46:17;;;;;;;1999.90;999.90;;;16.30;99.90;;;;;;5134330;27;20062;-61
2022/09/21 09:49:01;;;;;;;1999.90;999.90;;;16.30;99.90;;;;;;5124836;27;20470;-61
2022/09/21 09:51:27;;;;;;;1999.90;999.90;;;16.40;99.90;;;;;;5110744;27;20485;-61
2022/09/21 09:53:58;;;;;;;1999.90;999.90;;;16.30;99.90;;;;;;5132074;27;20055;-61
2022/09/21 09:56:24;;;;;;;1999.90;999.90;;;16.60;99.90;;;;;;5113189;27;20438;-61
2022/09/21 09:58:56;;;;;;;1999.90;999.90;;;16.50;99.90;;;;;;5123085;27;20402;-61
2022/09/21 10:01:41;;;;;;;1999.90;999.90;;;16.60;99.90;;;;;;5122526;27;20043;-61
2022/09/21 10:04:09;;;;;;;1999.90;999.90;;;17.00;99.80;;;;;;5113410;28;20462;-61
2022/09/21 10:06:35;;;;;;;1999.90;999.90;;;17.40;99.90;;;;;;5113413;28;20114;-61
2022/09/21 10:09:17;;;;;;;1999.90;999.90;;;18.10;99.90;;;;;;5111766;28;20051;-61
2022/09/21 10:11:43;;;;;;;1999.90;999.90;;;19.00;99.30;;;;;;5113766;28;20050;-61
2022/09/21 10:14:13;;;;;;;1999.90;999.90;;;19.90;97.80;;;;;;5113413;28;20043;-61
2022/09/21 10:16:40;;;;;;;1999.90;999.90;;;20.70;96.40;;;;;;5110800;28;20460;-61
2022/09/21 10:19:14;;;;;;;1999.90;999.90;;;21.50;94.40;;;;;;5113692;28;20054;-61
2022/09/21 10:21:42;;;;;;;1999.90;999.90;;;22.10;92.60;;;;;;5111740;28;20059;-61
2022/09/21 10:24:21;;;;;;;1999.90;999.90;;;22.80;91.00;;;;;;5112852;28;20045;-61
2022/09/21 10:26:50;;;;;;;1999.90;999.90;;;23.50;88.80;;;;;;5113194;28;20051;-61
2022/09/21 10:29:24;;;;;;;1999.90;999.90;;;23.90;84.70;;;;;;5111869;28;20113;-61
2022/09/21 10:31:57;;;;;;;1999.90;999.90;;;24.30;82.20;;;;;;5128834;28;20127;-61
2022/09/21 10:34:26;;;;;;;1999.90;999.90;;;24.60;79.50;;;;;;5125234;27;20488;-61
2022/09/21 10:36:55;;;;;;;1999.90;999.90;;;24.80;77.10;;;;;;5132799;28;20073;-61
2022/09/21 10:39:22;;;;;;;1999.90;999.90;;;25.10;76.20;;;;;;5133897;28;20393;-61
2022/09/21 10:42:10;;;;;;;1999.90;999.90;;;25.40;74.30;;;;;;5124639;28;20040;-61
2022/09/21 10:44:47;;;;;;;1999.90;999.90;;;25.60;74.00;;;;;;5112134;28;20043;-61
2022/09/21 10:47:21;;;;;;;1999.90;999.90;;;25.90;71.50;;;;;;5113312;28;20051;-61
2022/09/21 10:49:54;;;;;;;1999.90;999.90;;;26.20;69.90;;;;;;5113059;28;20056;-61
2022/09/21 10:52:30;;;;;;;1999.90;999.90;;;26.40;69.90;;;;;;5121434;28;20100;-61
2022/09/21 10:54:56;;;;;;;1999.90;999.90;;;26.50;68.80;;;;;;5133491;28;20058;-61
2022/09/21 10:57:24;;;;;;;1999.90;999.90;;;26.80;67.80;;;;;;5133701;28;20050;-61
2022/09/21 10:59:50;;;;;;;1999.90;999.90;;;26.30;64.40;;;;;;5120814;28;20082;-61
2022/09/21 11:02:25;;;;;;;1999.90;999.90;;;26.40;64.60;;;;;;5112606;28;20094;-61
2022/09/21 11:04:57;;;;;;;1999.90;999.90;;;26.70;64.80;;;;;;5111830;28;20079;-61
2022/09/21 11:07:26;;;;;;;1999.90;999.90;;;27.10;64.90;;;;;;5113044;28;20039;-61
2022/09/21 11:09:59;;;;;;;1999.90;999.90;;;27.50;63.60;;;;;;5113132;28;20055;-61
2022/09/21 11:12:34;;;;;;;1999.90;999.90;;;27.90;63.10;;;;;;5112123;28;20451;-61
2022/09/21 11:15:11;;;;;;;1999.90;999.90;;;27.90;57.60;;;;;;5112319;28;20059;-61
2022/09/21 11:17:53;;;;;;;1999.90;999.90;;;27.80;58.40;;;;;;5113726;28;20039;-61
2022/09/21 11:20:35;;;;;;;1999.90;999.90;;;26.30;55.50;;;;;;5124369;28;20043;-61
2022/09/21 11:23:22;;;;;;;1999.90;999.90;;;26.30;60.30;;;;;;5119625;28;20051;-61
2022/09/21 11:25:57;;;;;;;1999.90;999.90;;;26.50;59.20;;;;;;5122131;28;20039;-61
2022/09/21 11:28:52;;;;;;;1999.90;999.90;;;27.40;59.30;;;;;;5118695;28;20079;-61
2022/09/21 11:31:33;;;;;;;1999.90;999.90;;;28.20;55.60;;;;;;5117034;28;20039;-62
2022/09/21 11:34:32;;;;;;;1999.90;999.90;;;28.70;57.20;;;;;;5098530;28;20087;-62
2022/09/21 11:36:58;;;;;;;1999.90;999.90;;;27.80;53.20;;;;;;5120653;28;20047;-61
2022/09/21 11:39:37;;;;;;;1999.90;999.90;;;28.00;56.20;;;;;;5113868;28;20054;-61
2022/09/21 11:42:21;;;;;;;1999.90;999.90;;;28.60;55.90;;;;;;5111967;28;20505;-61
2022/09/21 11:44:54;;;;;;;1999.90;999.90;;;;;;;;;;5112470;28;20118;-61
2022/09/21 11:47:58;;;;;;;1999.90;999.90;;;29.80;53.40;;;;;;5115851;27;20047;-61
2022/09/21 11:50:44;;;;;;;1999.90;999.90;;;30.50;54.30;;;;;;5106187;27;20039;-62
2022/09/21 11:53:17;;;;;;;1999.90;999.90;;;30.50;48.00;;;;;;5105777;27;20528;-61
2022/09/21 11:55:53;;;;;;;1999.90;999.90;;;30.10;48.90;;;;;;5126125;27;20050;-61
2022/09/21 11:58:41;;;;;;;1999.90;999.90;;;28.80;50.50;;;;;;5126514;27;20047;-61
2022/09/21 12:01:25;;;;;;;1999.90;999.90;;;28.00;49.90;;;;;;5121812;27;20047;-62
2022/09/21 12:04:06;;;;;;;1999.90;999.90;;;26.50;53.60;;;;;;5118613;27;20107;-62
2022/09/21 12:06:39;;;;;;;1999.90;999.90;;;25.70;54.50;;;;;;5102842;27;20131;-61
2022/09/21 12:09:33;;;;;;;1999.90;999.90;;;25.10;56.30;;;;;;5105382;27;20051;-61
2022/09/21 12:12:12;;;;;;;1999.90;999.90;;;25.50;56.20;;;;;;5124044;27;20043;-61
2022/09/21 12:15:01;;;;;;;1999.90;999.90;;;25.80;54.70;;;;;;5122809;27;20055;-61
2022/09/21 12:17:51;;;;;;;1999.90;999.90;;;26.10;56.90;;;;;;5102783;28;20039;-61
2022/09/21 12:20:26;;;;;;;1999.90;999.90;;;26.60;55.00;;;;;;5114529;27;20564;-60
2022/09/21 12:22:58;;;;;;;1999.90;999.90;;;27.90;52.20;;;;;;5122143;27;20126;-62
2022/09/21 12:25:30;;;;;;;1999.90;999.90;;;27.80;49.40;;;;;;5133097;27;20536;-61